sensor_id;sensor_type;location;lat;lon;timestamp;P1;durP1;ratioP1;P2;durP2;ratioP2
65189;SDS011;51777;53.570;9.984;2024-02-23T00:01:39;0.40;;;0.40;;
65189;SDS011;51777;53.570;9.984;2024-02-23T00:04:04;2.33;;;0.50;;
65189;SDS011;51777;53.570;9.984;2024-02-23T00:06:32;1.10;;;0.77;;
65189;SDS011;51777;53.570;9.984;2024-02-23T00:08:57;0.75;;;0.70;;
65189;SDS011;51777;53.570;9.984;2024-02-23T00:11:23;0.70;;;0.60;;
65189;SDS011;51777;53.570;9.984;2024-02-23T00:13:49;0.75;;;0.75;;
65189;SDS011;51777;53.570;9.984;2024-02-23T00:16:14;0.85;;;0.70;;
65189;SDS011;51777;53.570;9.984;2024-02-23T00:18:40;1.38;;;0.80;;
65189;SDS011;51777;53.570;9.984;2024-02-23T00:21:05;1.55;;;0.93;;
65189;SDS011;51777;53.570;9.984;2024-02-23T00:23:30;2.05;;;0.90;;
65189;SDS011;51777;53.570;9.984;2024-02-23T00:25:56;1.95;;;1.00;;
65189;SDS011;51777;53.570;9.984;2024-02-23T00:28:21;4.30;;;1.02;;
65189;SDS011;51777;53.570;9.984;2024-02-23T00:30:47;1.65;;;0.70;;
65189;SDS011;51777;53.570;9.984;2024-02-23T00:33:12;1.15;;;0.77;;
65189;SDS011;51777;53.570;9.984;2024-02-23T00:35:38;1.50;;;0.80;;
65189;SDS011;51777;53.570;9.984;2024-02-23T00:38:04;0.88;;;0.73;;
65189;SDS011;51777;53.570;9.984;2024-02-23T00:40:29;0.50;;;0.50;;
65189;SDS011;51777;53.570;9.984;2024-02-23T00:42:55;0.90;;;0.63;;
65189;SDS011;51777;53.570;9.984;2024-02-23T00:45:20;0.85;;;0.80;;
65189;SDS011;51777;53.570;9.984;2024-02-23T00:47:46;1.05;;;0.70;;
65189;SDS011;51777;53.570;9.984;2024-02-23T00:50:12;1.40;;;0.80;;
65189;SDS011;51777;53.570;9.984;2024-02-23T00:52:37;0.60;;;0.50;;
65189;SDS011;51777;53.570;9.984;2024-02-23T00:55:03;0.77;;;0.47;;
65189;SDS011;51777;53.570;9.984;2024-02-23T00:57:28;0.40;;;0.40;;
65189;SDS011;51777;53.570;9.984;2024-02-23T00:59:58;1.13;;;0.40;;
65189;SDS011;51777;53.570;9.984;2024-02-23T01:02:23;0.20;;;0.20;;
65189;SDS011;51777;53.570;9.984;2024-02-23T01:04:49;0.30;;;0.30;;
65189;SDS011;51777;53.570;9.984;2024-02-23T01:07:14;7.28;;;0.50;;
65189;SDS011;51777;53.570;9.984;2024-02-23T01:09:40;0.38;;;0.38;;
65189;SDS011;51777;53.570;9.984;2024-02-23T01:12:05;0.43;;;0.43;;
65189;SDS011;51777;53.570;9.984;2024-02-23T01:14:31;0.47;;;0.47;;
65189;SDS011;51777;53.570;9.984;2024-02-23T01:16:56;0.50;;;0.50;;
65189;SDS011;51777;53.570;9.984;2024-02-23T01:19:22;3.17;;;0.50;;
65189;SDS011;51777;53.570;9.984;2024-02-23T01:21:48;1.45;;;0.38;;
65189;SDS011;51777;53.570;9.984;2024-02-23T01:24:17;0.32;;;0.32;;
65189;SDS011;51777;53.570;9.984;2024-02-23T01:26:42;0.50;;;0.50;;
65189;SDS011;51777;53.570;9.984;2024-02-23T01:29:07;2.10;;;0.43;;
65189;SDS011;51777;53.570;9.984;2024-02-23T01:31:33;0.30;;;0.30;;
65189;SDS011;51777;53.570;9.984;2024-02-23T01:33:58;0.70;;;0.40;;
65189;SDS011;51777;53.570;9.984;2024-02-23T01:36:23;0.52;;;0.40;;
65189;SDS011;51777;53.570;9.984;2024-02-23T01:38:49;3.03;;;0.60;;
65189;SDS011;51777;53.570;9.984;2024-02-23T01:41:14;0.88;;;0.50;;
65189;SDS011;51777;53.570;9.984;2024-02-23T01:43:41;0.60;;;0.60;;
65189;SDS011;51777;53.570;9.984;2024-02-23T01:46:06;2.50;;;0.77;;
65189;SDS011;51777;53.570;9.984;2024-02-23T01:48:32;0.50;;;0.47;;
65189;SDS011;51777;53.570;9.984;2024-02-23T01:50:58;0.43;;;0.43;;
65189;SDS011;51777;53.570;9.984;2024-02-23T01:53:23;0.47;;;0.47;;
65189;SDS011;51777;53.570;9.984;2024-02-23T01:55:50;0.35;;;0.30;;
65189;SDS011;51777;53.570;9.984;2024-02-23T01:58:16;1.13;;;0.50;;
65189;SDS011;51777;53.570;9.984;2024-02-23T02:00:43;0.52;;;0.40;;
65189;SDS011;51777;53.570;9.984;2024-02-23T02:03:08;0.30;;;0.30;;
65189;SDS011;51777;53.570;9.984;2024-02-23T02:05:35;0.40;;;0.40;;
65189;SDS011;51777;53.570;9.984;2024-02-23T02:08:01;0.20;;;0.20;;
65189;SDS011;51777;53.570;9.984;2024-02-23T02:10:26;0.20;;;0.20;;
65189;SDS011;51777;53.570;9.984;2024-02-23T02:12:52;0.40;;;0.40;;
65189;SDS011;51777;53.570;9.984;2024-02-23T02:15:18;0.20;;;0.20;;
65189;SDS011;51777;53.570;9.984;2024-02-23T02:17:43;0.20;;;0.20;;
65189;SDS011;51777;53.570;9.984;2024-02-23T02:20:12;0.32;;;0.30;;
65189;SDS011;51777;53.570;9.984;2024-02-23T02:22:38;0.20;;;0.20;;
65189;SDS011;51777;53.570;9.984;2024-02-23T02:25:05;0.20;;;0.20;;
65189;SDS011;51777;53.570;9.984;2024-02-23T02:27:31;0.20;;;0.20;;
65189;SDS011;51777;53.570;9.984;2024-02-23T02:29:56;0.20;;;0.20;;
65189;SDS011;51777;53.570;9.984;2024-02-23T02:32:22;0.20;;;0.20;;
65189;SDS011;51777;53.570;9.984;2024-02-23T02:34:48;0.35;;;0.35;;
65189;SDS011;51777;53.570;9.984;2024-02-23T02:37:13;0.20;;;0.20;;
65189;SDS011;51777;53.570;9.984;2024-02-23T02:39:38;1.25;;;0.20;;
65189;SDS011;51777;53.570;9.984;2024-02-23T02:42:04;1.02;;;0.30;;
65189;SDS011;51777;53.570;9.984;2024-02-23T02:44:30;0.45;;;0.40;;
65189;SDS011;51777;53.570;9.984;2024-02-23T02:46:56;0.28;;;0.28;;
65189;SDS011;51777;53.570;9.984;2024-02-23T02:49:22;0.28;;;0.28;;
65189;SDS011;51777;53.570;9.984;2024-02-23T02:51:47;0.30;;;0.30;;
65189;SDS011;51777;53.570;9.984;2024-02-23T02:54:13;0.20;;;0.20;;
65189;SDS011;51777;53.570;9.984;2024-02-23T02:56:45;0.30;;;0.30;;
65189;SDS011;51777;53.570;9.984;2024-02-23T02:59:12;0.30;;;0.30;;
65189;SDS011;51777;53.570;9.984;2024-02-23T03:01:38;0.30;;;0.30;;
65189;SDS011;51777;53.570;9.984;2024-02-23T03:04:04;0.20;;;0.20;;
65189;SDS011;51777;53.570;9.984;2024-02-23T03:06:30;0.50;;;0.40;;
65189;SDS011;51777;53.570;9.984;2024-02-23T03:08:55;0.45;;;0.38;;
65189;SDS011;51777;53.570;9.984;2024-02-23T03:11:21;1.05;;;0.40;;
65189;SDS011;51777;53.570;9.984;2024-02-23T03:13:46;1.40;;;0.45;;
65189;SDS011;51777;53.570;9.984;2024-02-23T03:16:18;0.38;;;0.38;;
65189;SDS011;51777;53.570;9.984;2024-02-23T03:18:44;3.60;;;0.50;;
65189;SDS011;51777;53.570;9.984;2024-02-23T03:21:12;0.43;;;0.40;;
65189;SDS011;51777;53.570;9.984;2024-02-23T03:23:40;0.75;;;0.50;;
65189;SDS011;51777;53.570;9.984;2024-02-23T03:26:06;0.65;;;0.50;;
65189;SDS011;51777;53.570;9.984;2024-02-23T03:28:32;2.67;;;0.68;;
65189;SDS011;51777;53.570;9.984;2024-02-23T03:30:58;0.80;;;0.70;;
65189;SDS011;51777;53.570;9.984;2024-02-23T03:33:24;1.45;;;0.70;;
65189;SDS011;51777;53.570;9.984;2024-02-23T03:35:50;1.88;;;0.63;;
65189;SDS011;51777;53.570;9.984;2024-02-23T03:38:15;0.45;;;0.43;;
65189;SDS011;51777;53.570;9.984;2024-02-23T03:40:41;0.50;;;0.50;;
65189;SDS011;51777;53.570;9.984;2024-02-23T03:43:06;0.93;;;0.43;;
65189;SDS011;51777;53.570;9.984;2024-02-23T03:45:31;0.40;;;0.40;;
65189;SDS011;51777;53.570;9.984;2024-02-23T03:47:57;0.50;;;0.50;;
65189;SDS011;51777;53.570;9.984;2024-02-23T03:50:24;0.40;;;0.40;;
65189;SDS011;51777;53.570;9.984;2024-02-23T03:52:50;1.30;;;0.70;;
65189;SDS011;51777;53.570;9.984;2024-02-23T03:55:15;0.82;;;0.70;;
65189;SDS011;51777;53.570;9.984;2024-02-23T03:57:41;1.23;;;0.93;;
65189;SDS011;51777;53.570;9.984;2024-02-23T04:00:06;0.50;;;0.50;;
65189;SDS011;51777;53.570;9.984;2024-02-23T04:02:33;0.50;;;0.50;;
65189;SDS011;51777;53.570;9.984;2024-02-23T04:05:00;0.65;;;0.65;;
65189;SDS011;51777;53.570;9.984;2024-02-23T04:07:25;1.88;;;0.57;;
65189;SDS011;51777;53.570;9.984;2024-02-23T04:09:51;0.55;;;0.55;;
65189;SDS011;51777;53.570;9.984;2024-02-23T04:12:20;3.30;;;0.63;;
65189;SDS011;51777;53.570;9.984;2024-02-23T04:14:46;0.93;;;0.60;;
65189;SDS011;51777;53.570;9.984;2024-02-23T04:17:12;0.60;;;0.60;;
65189;SDS011;51777;53.570;9.984;2024-02-23T04:19:38;2.25;;;0.60;;
65189;SDS011;51777;53.570;9.984;2024-02-23T04:22:05;3.25;;;0.70;;
65189;SDS011;51777;53.570;9.984;2024-02-23T04:24:34;0.75;;;0.63;;
65189;SDS011;51777;53.570;9.984;2024-02-23T04:27:01;1.65;;;0.70;;
65189;SDS011;51777;53.570;9.984;2024-02-23T04:29:27;5.00;;;0.98;;
65189;SDS011;51777;53.570;9.984;2024-02-23T04:31:52;1.75;;;0.98;;
65189;SDS011;51777;53.570;9.984;2024-02-23T04:34:18;2.67;;;0.73;;
65189;SDS011;51777;53.570;9.984;2024-02-23T04:36:43;1.15;;;0.80;;
65189;SDS011;51777;53.570;9.984;2024-02-23T04:39:09;0.60;;;0.60;;
65189;SDS011;51777;53.570;9.984;2024-02-23T04:41:34;3.90;;;1.13;;
65189;SDS011;51777;53.570;9.984;2024-02-23T04:44:00;2.05;;;1.00;;
65189;SDS011;51777;53.570;9.984;2024-02-23T04:46:26;0.95;;;0.80;;
65189;SDS011;51777;53.570;9.984;2024-02-23T04:48:52;1.65;;;0.90;;
65189;SDS011;51777;53.570;9.984;2024-02-23T04:51:17;0.60;;;0.60;;
65189;SDS011;51777;53.570;9.984;2024-02-23T04:53:44;1.02;;;0.80;;
65189;SDS011;51777;53.570;9.984;2024-02-23T04:56:09;2.20;;;0.80;;
65189;SDS011;51777;53.570;9.984;2024-02-23T04:58:35;3.60;;;1.20;;
65189;SDS011;51777;53.570;9.984;2024-02-23T05:01:01;2.03;;;1.10;;
65189;SDS011;51777;53.570;9.984;2024-02-23T05:03:28;1.40;;;0.98;;
65189;SDS011;51777;53.570;9.984;2024-02-23T05:05:54;2.47;;;1.30;;
65189;SDS011;51777;53.570;9.984;2024-02-23T05:08:19;2.22;;;1.30;;
65189;SDS011;51777;53.570;9.984;2024-02-23T05:10:46;3.17;;;1.27;;
65189;SDS011;51777;53.570;9.984;2024-02-23T05:13:12;3.50;;;1.25;;
65189;SDS011;51777;53.570;9.984;2024-02-23T05:15:38;2.40;;;1.42;;
65189;SDS011;51777;53.570;9.984;2024-02-23T05:18:03;1.30;;;1.00;;
65189;SDS011;51777;53.570;9.984;2024-02-23T05:20:29;4.18;;;1.35;;
65189;SDS011;51777;53.570;9.984;2024-02-23T05:22:54;3.33;;;1.25;;
65189;SDS011;51777;53.570;9.984;2024-02-23T05:25:21;3.35;;;1.25;;
65189;SDS011;51777;53.570;9.984;2024-02-23T05:27:46;3.53;;;1.30;;
65189;SDS011;51777;53.570;9.984;2024-02-23T05:30:12;2.40;;;1.20;;
65189;SDS011;51777;53.570;9.984;2024-02-23T05:32:38;3.45;;;1.55;;
65189;SDS011;51777;53.570;9.984;2024-02-23T05:35:03;6.25;;;2.00;;
65189;SDS011;51777;53.570;9.984;2024-02-23T05:37:29;4.03;;;1.60;;
65189;SDS011;51777;53.570;9.984;2024-02-23T05:39:55;2.42;;;1.30;;
65189;SDS011;51777;53.570;9.984;2024-02-23T05:42:20;1.52;;;1.10;;
65189;SDS011;51777;53.570;9.984;2024-02-23T05:44:46;4.40;;;1.88;;
65189;SDS011;51777;53.570;9.984;2024-02-23T05:47:13;1.52;;;1.23;;
65189;SDS011;51777;53.570;9.984;2024-02-23T05:49:39;1.63;;;1.20;;
65189;SDS011;51777;53.570;9.984;2024-02-23T05:52:05;2.15;;;1.05;;
65189;SDS011;51777;53.570;9.984;2024-02-23T05:54:30;3.30;;;1.30;;
65189;SDS011;51777;53.570;9.984;2024-02-23T05:56:55;4.97;;;1.42;;
65189;SDS011;51777;53.570;9.984;2024-02-23T05:59:21;1.35;;;1.00;;
65189;SDS011;51777;53.570;9.984;2024-02-23T06:01:46;3.67;;;1.30;;
65189;SDS011;51777;53.570;9.984;2024-02-23T06:04:12;1.00;;;0.90;;
65189;SDS011;51777;53.570;9.984;2024-02-23T06:06:40;1.98;;;0.90;;
65189;SDS011;51777;53.570;9.984;2024-02-23T06:09:06;0.98;;;0.80;;
65189;SDS011;51777;53.570;9.984;2024-02-23T06:11:32;7.70;;;1.40;;
65189;SDS011;51777;53.570;9.984;2024-02-23T06:13:57;2.30;;;1.33;;
65189;SDS011;51777;53.570;9.984;2024-02-23T06:16:22;1.48;;;0.90;;
65189;SDS011;51777;53.570;9.984;2024-02-23T06:18:48;3.45;;;1.20;;
65189;SDS011;51777;53.570;9.984;2024-02-23T06:21:17;3.92;;;1.40;;
65189;SDS011;51777;53.570;9.984;2024-02-23T06:23:43;1.30;;;1.10;;
65189;SDS011;51777;53.570;9.984;2024-02-23T06:26:09;1.33;;;1.13;;
65189;SDS011;51777;53.570;9.984;2024-02-23T06:28:35;5.13;;;1.60;;
65189;SDS011;51777;53.570;9.984;2024-02-23T06:31:02;3.42;;;1.40;;
65189;SDS011;51777;53.570;9.984;2024-02-23T06:33:29;1.50;;;1.20;;
65189;SDS011;51777;53.570;9.984;2024-02-23T06:35:55;2.65;;;1.15;;
65189;SDS011;51777;53.570;9.984;2024-02-23T06:38:21;3.03;;;1.67;;
65189;SDS011;51777;53.570;9.984;2024-02-23T06:40:47;2.22;;;1.00;;
65189;SDS011;51777;53.570;9.984;2024-02-23T06:43:13;4.70;;;1.45;;
65189;SDS011;51777;53.570;9.984;2024-02-23T06:45:38;3.95;;;1.30;;
65189;SDS011;51777;53.570;9.984;2024-02-23T06:48:04;3.78;;;1.90;;
65189;SDS011;51777;53.570;9.984;2024-02-23T06:50:29;3.33;;;1.63;;
65189;SDS011;51777;53.570;9.984;2024-02-23T06:52:55;4.30;;;1.52;;
65189;SDS011;51777;53.570;9.984;2024-02-23T06:55:20;3.13;;;1.17;;
65189;SDS011;51777;53.570;9.984;2024-02-23T06:57:46;1.27;;;0.93;;
65189;SDS011;51777;53.570;9.984;2024-02-23T07:00:12;6.07;;;1.80;;
65189;SDS011;51777;53.570;9.984;2024-02-23T07:02:38;2.10;;;1.30;;
65189;SDS011;51777;53.570;9.984;2024-02-23T07:05:04;4.03;;;1.38;;
65189;SDS011;51777;53.570;9.984;2024-02-23T07:07:30;6.38;;;1.60;;
65189;SDS011;51777;53.570;9.984;2024-02-23T07:09:58;2.28;;;1.30;;
65189;SDS011;51777;53.570;9.984;2024-02-23T07:12:24;7.55;;;2.10;;
65189;SDS011;51777;53.570;9.984;2024-02-23T07:14:50;3.90;;;1.50;;
65189;SDS011;51777;53.570;9.984;2024-02-23T07:17:16;2.80;;;1.50;;
65189;SDS011;51777;53.570;9.984;2024-02-23T07:19:42;11.20;;;5.20;;
65189;SDS011;51777;53.570;9.984;2024-02-23T07:22:08;4.85;;;1.77;;
65189;SDS011;51777;53.570;9.984;2024-02-23T07:24:33;2.70;;;1.30;;
65189;SDS011;51777;53.570;9.984;2024-02-23T07:26:58;4.53;;;2.00;;
65189;SDS011;51777;53.570;9.984;2024-02-23T07:29:24;3.85;;;1.73;;
65189;SDS011;51777;53.570;9.984;2024-02-23T07:31:49;3.60;;;1.80;;
65189;SDS011;51777;53.570;9.984;2024-02-23T07:34:15;2.83;;;1.17;;
65189;SDS011;51777;53.570;9.984;2024-02-23T07:36:40;4.90;;;1.67;;
65189;SDS011;51777;53.570;9.984;2024-02-23T07:39:05;4.28;;;1.98;;
65189;SDS011;51777;53.570;9.984;2024-02-23T07:41:31;3.47;;;2.10;;
65189;SDS011;51777;53.570;9.984;2024-02-23T07:43:56;3.67;;;1.98;;
65189;SDS011;51777;53.570;9.984;2024-02-23T07:46:22;6.97;;;2.67;;
65189;SDS011;51777;53.570;9.984;2024-02-23T07:48:48;5.82;;;2.65;;
65189;SDS011;51777;53.570;9.984;2024-02-23T07:51:13;8.75;;;2.72;;
65189;SDS011;51777;53.570;9.984;2024-02-23T07:53:39;1.52;;;1.27;;
65189;SDS011;51777;53.570;9.984;2024-02-23T07:56:07;5.50;;;1.30;;
65189;SDS011;51777;53.570;9.984;2024-02-23T07:58:33;4.60;;;1.77;;
65189;SDS011;51777;53.570;9.984;2024-02-23T08:00:58;3.13;;;1.65;;
65189;SDS011;51777;53.570;9.984;2024-02-23T08:03:23;2.70;;;1.30;;
65189;SDS011;51777;53.570;9.984;2024-02-23T08:05:49;6.20;;;1.95;;
65189;SDS011;51777;53.570;9.984;2024-02-23T08:08:14;4.72;;;1.20;;
65189;SDS011;51777;53.570;9.984;2024-02-23T08:10:40;2.03;;;1.27;;
65189;SDS011;51777;53.570;9.984;2024-02-23T08:13:05;3.42;;;1.42;;
65189;SDS011;51777;53.570;9.984;2024-02-23T08:15:31;5.43;;;1.30;;
65189;SDS011;51777;53.570;9.984;2024-02-23T08:17:56;6.97;;;1.67;;
65189;SDS011;51777;53.570;9.984;2024-02-23T08:20:22;5.45;;;1.40;;
65189;SDS011;51777;53.570;9.984;2024-02-23T08:22:48;5.32;;;1.30;;
65189;SDS011;51777;53.570;9.984;2024-02-23T08:25:13;4.65;;;1.25;;
65189;SDS011;51777;53.570;9.984;2024-02-23T08:27:40;7.90;;;1.98;;
65189;SDS011;51777;53.570;9.984;2024-02-23T08:30:06;5.57;;;1.70;;
65189;SDS011;51777;53.570;9.984;2024-02-23T08:32:32;7.78;;;1.73;;
65189;SDS011;51777;53.570;9.984;2024-02-23T08:34:57;3.65;;;1.40;;
65189;SDS011;51777;53.570;9.984;2024-02-23T08:37:25;3.40;;;1.50;;
65189;SDS011;51777;53.570;9.984;2024-02-23T08:39:51;4.68;;;1.20;;
65189;SDS011;51777;53.570;9.984;2024-02-23T08:42:16;6.00;;;1.70;;
65189;SDS011;51777;53.570;9.984;2024-02-23T08:44:42;7.35;;;1.52;;
65189;SDS011;51777;53.570;9.984;2024-02-23T08:47:07;4.25;;;1.30;;
65189;SDS011;51777;53.570;9.984;2024-02-23T08:49:33;8.48;;;1.67;;
65189;SDS011;51777;53.570;9.984;2024-02-23T08:51:58;2.22;;;0.80;;
65189;SDS011;51777;53.570;9.984;2024-02-23T08:54:24;2.55;;;1.17;;
65189;SDS011;51777;53.570;9.984;2024-02-23T08:56:49;4.40;;;1.48;;
65189;SDS011;51777;53.570;9.984;2024-02-23T08:59:14;2.25;;;0.80;;
65189;SDS011;51777;53.570;9.984;2024-02-23T09:01:40;2.47;;;1.00;;
65189;SDS011;51777;53.570;9.984;2024-02-23T09:04:05;3.92;;;1.23;;
65189;SDS011;51777;53.570;9.984;2024-02-23T09:06:31;2.95;;;1.17;;
65189;SDS011;51777;53.570;9.984;2024-02-23T09:08:58;4.15;;;1.30;;
65189;SDS011;51777;53.570;9.984;2024-02-23T09:11:23;2.97;;;1.27;;
65189;SDS011;51777;53.570;9.984;2024-02-23T09:13:49;2.55;;;1.52;;
65189;SDS011;51777;53.570;9.984;2024-02-23T09:16:14;3.80;;;1.40;;
65189;SDS011;51777;53.570;9.984;2024-02-23T09:18:41;6.78;;;1.85;;
65189;SDS011;51777;53.570;9.984;2024-02-23T09:21:07;5.43;;;1.70;;
65189;SDS011;51777;53.570;9.984;2024-02-23T09:23:33;6.68;;;1.75;;
65189;SDS011;51777;53.570;9.984;2024-02-23T09:25:59;4.63;;;1.10;;
65189;SDS011;51777;53.570;9.984;2024-02-23T09:28:25;5.78;;;1.45;;
65189;SDS011;51777;53.570;9.984;2024-02-23T09:30:50;4.47;;;1.13;;
65189;SDS011;51777;53.570;9.984;2024-02-23T09:33:16;3.70;;;1.10;;
65189;SDS011;51777;53.570;9.984;2024-02-23T09:35:41;4.72;;;1.88;;
65189;SDS011;51777;53.570;9.984;2024-02-23T09:38:06;8.18;;;1.83;;
65189;SDS011;51777;53.570;9.984;2024-02-23T09:40:32;3.60;;;1.30;;
65189;SDS011;51777;53.570;9.984;2024-02-23T09:42:58;3.75;;;1.25;;
65189;SDS011;51777;53.570;9.984;2024-02-23T09:45:24;4.75;;;1.50;;
65189;SDS011;51777;53.570;9.984;2024-02-23T09:47:52;3.83;;;1.27;;
65189;SDS011;51777;53.570;9.984;2024-02-23T09:50:20;5.18;;;1.38;;
65189;SDS011;51777;53.570;9.984;2024-02-23T09:52:47;8.10;;;1.67;;
65189;SDS011;51777;53.570;9.984;2024-02-23T09:55:15;3.70;;;1.60;;
65189;SDS011;51777;53.570;9.984;2024-02-23T09:57:46;3.67;;;1.40;;
65189;SDS011;51777;53.570;9.984;2024-02-23T10:00:15;6.90;;;1.48;;
65189;SDS011;51777;53.570;9.984;2024-02-23T10:02:42;4.97;;;1.30;;
65189;SDS011;51777;53.570;9.984;2024-02-23T10:05:09;8.02;;;1.58;;
65189;SDS011;51777;53.570;9.984;2024-02-23T10:07:37;6.93;;;1.67;;
65189;SDS011;51777;53.570;9.984;2024-02-23T10:10:02;9.98;;;1.65;;
65189;SDS011;51777;53.570;9.984;2024-02-23T10:12:32;6.18;;;1.60;;
65189;SDS011;51777;53.570;9.984;2024-02-23T10:14:59;4.55;;;1.52;;
65189;SDS011;51777;53.570;9.984;2024-02-23T10:17:28;8.95;;;1.77;;
65189;SDS011;51777;53.570;9.984;2024-02-23T10:19:54;7.53;;;1.58;;
65189;SDS011;51777;53.570;9.984;2024-02-23T10:22:20;5.50;;;1.50;;
65189;SDS011;51777;53.570;9.984;2024-02-23T10:24:46;7.43;;;1.50;;
65189;SDS011;51777;53.570;9.984;2024-02-23T10:27:12;3.53;;;1.40;;
65189;SDS011;51777;53.570;9.984;2024-02-23T10:29:37;6.30;;;1.38;;
65189;SDS011;51777;53.570;9.984;2024-02-23T10:32:02;6.32;;;1.30;;
65189;SDS011;51777;53.570;9.984;2024-02-23T10:34:30;5.07;;;1.30;;
65189;SDS011;51777;53.570;9.984;2024-02-23T10:36:56;6.82;;;1.63;;
65189;SDS011;51777;53.570;9.984;2024-02-23T10:39:22;7.78;;;1.30;;
65189;SDS011;51777;53.570;9.984;2024-02-23T10:41:51;4.85;;;1.63;;
65189;SDS011;51777;53.570;9.984;2024-02-23T10:44:26;3.88;;;1.70;;
65189;SDS011;51777;53.570;9.984;2024-02-23T10:46:53;5.47;;;1.80;;
65189;SDS011;51777;53.570;9.984;2024-02-23T10:49:20;4.05;;;1.30;;
65189;SDS011;51777;53.570;9.984;2024-02-23T10:51:50;2.05;;;1.10;;
65189;SDS011;51777;53.570;9.984;2024-02-23T10:54:19;5.97;;;1.25;;
65189;SDS011;51777;53.570;9.984;2024-02-23T10:56:47;8.48;;;1.40;;
65189;SDS011;51777;53.570;9.984;2024-02-23T10:59:13;4.35;;;1.13;;
65189;SDS011;51777;53.570;9.984;2024-02-23T11:01:47;6.88;;;1.67;;
65189;SDS011;51777;53.570;9.984;2024-02-23T11:04:17;3.88;;;1.58;;
65189;SDS011;51777;53.570;9.984;2024-02-23T11:06:51;11.35;;;2.92;;
65189;SDS011;51777;53.570;9.984;2024-02-23T11:09:20;3.78;;;1.30;;
65189;SDS011;51777;53.570;9.984;2024-02-23T11:14:28;5.18;;;1.33;;
65189;SDS011;51777;53.570;9.984;2024-02-23T11:16:57;3.58;;;1.10;;
65189;SDS011;51777;53.570;9.984;2024-02-23T11:19:31;4.25;;;1.20;;
65189;SDS011;51777;53.570;9.984;2024-02-23T11:21:58;7.70;;;1.40;;
65189;SDS011;51777;53.570;9.984;2024-02-23T11:24:25;3.63;;;1.23;;
65189;SDS011;51777;53.570;9.984;2024-02-23T11:26:57;3.22;;;1.08;;
65189;SDS011;51777;53.570;9.984;2024-02-23T11:29:25;6.55;;;1.23;;
65189;SDS011;51777;53.570;9.984;2024-02-23T11:31:52;5.85;;;1.20;;
65189;SDS011;51777;53.570;9.984;2024-02-23T11:34:22;2.85;;;1.10;;
65189;SDS011;51777;53.570;9.984;2024-02-23T11:36:52;7.25;;;1.30;;
65189;SDS011;51777;53.570;9.984;2024-02-23T11:39:18;7.72;;;1.67;;
65189;SDS011;51777;53.570;9.984;2024-02-23T11:41:44;2.83;;;1.00;;
65189;SDS011;51777;53.570;9.984;2024-02-23T11:44:12;5.38;;;1.38;;
65189;SDS011;51777;53.570;9.984;2024-02-23T11:46:38;6.10;;;1.27;;
65189;SDS011;51777;53.570;9.984;2024-02-23T11:49:03;2.03;;;0.80;;
65189;SDS011;51777;53.570;9.984;2024-02-23T11:51:29;3.00;;;0.95;;
65189;SDS011;51777;53.570;9.984;2024-02-23T11:53:56;4.60;;;1.40;;
65189;SDS011;51777;53.570;9.984;2024-02-23T11:56:23;4.25;;;1.40;;
65189;SDS011;51777;53.570;9.984;2024-02-23T11:58:49;9.27;;;1.35;;
65189;SDS011;51777;53.570;9.984;2024-02-23T12:01:14;5.70;;;1.30;;
65189;SDS011;51777;53.570;9.984;2024-02-23T12:03:40;7.60;;;1.40;;
65189;SDS011;51777;53.570;9.984;2024-02-23T12:06:07;4.47;;;1.23;;
65189;SDS011;51777;53.570;9.984;2024-02-23T12:08:32;2.25;;;0.82;;
65189;SDS011;51777;53.570;9.984;2024-02-23T12:11:03;3.40;;;1.13;;
65189;SDS011;51777;53.570;9.984;2024-02-23T12:13:30;2.42;;;1.05;;
65189;SDS011;51777;53.570;9.984;2024-02-23T12:15:56;5.03;;;1.10;;
65189;SDS011;51777;53.570;9.984;2024-02-23T12:18:22;3.08;;;1.00;;
65189;SDS011;51777;53.570;9.984;2024-02-23T12:20:48;3.78;;;1.30;;
65189;SDS011;51777;53.570;9.984;2024-02-23T12:23:14;3.38;;;1.10;;
65189;SDS011;51777;53.570;9.984;2024-02-23T12:25:51;5.93;;;1.42;;
65189;SDS011;51777;53.570;9.984;2024-02-23T12:28:18;4.20;;;1.30;;
65189;SDS011;51777;53.570;9.984;2024-02-23T12:30:44;3.83;;;1.10;;
65189;SDS011;51777;53.570;9.984;2024-02-23T12:33:15;5.47;;;1.40;;
65189;SDS011;51777;53.570;9.984;2024-02-23T12:35:41;4.55;;;1.52;;
65189;SDS011;51777;53.570;9.984;2024-02-23T12:38:07;3.63;;;1.40;;
65189;SDS011;51777;53.570;9.984;2024-02-23T12:40:33;3.70;;;1.35;;
65189;SDS011;51777;53.570;9.984;2024-02-23T12:42:58;3.47;;;1.40;;
65189;SDS011;51777;53.570;9.984;2024-02-23T12:45:24;4.43;;;1.05;;
65189;SDS011;51777;53.570;9.984;2024-02-23T12:47:50;2.85;;;1.02;;
65189;SDS011;51777;53.570;9.984;2024-02-23T12:50:15;4.35;;;1.10;;
65189;SDS011;51777;53.570;9.984;2024-02-23T12:52:41;10.70;;;1.30;;
65189;SDS011;51777;53.570;9.984;2024-02-23T12:55:12;7.05;;;1.83;;
65189;SDS011;51777;53.570;9.984;2024-02-23T12:57:37;4.45;;;1.25;;
65189;SDS011;51777;53.570;9.984;2024-02-23T13:00:03;6.78;;;1.40;;
65189;SDS011;51777;53.570;9.984;2024-02-23T13:02:30;2.20;;;1.02;;
65189;SDS011;51777;53.570;9.984;2024-02-23T13:04:55;2.33;;;1.33;;
65189;SDS011;51777;53.570;9.984;2024-02-23T13:07:21;4.20;;;1.13;;
65189;SDS011;51777;53.570;9.984;2024-02-23T13:09:46;3.08;;;1.15;;
65189;SDS011;51777;53.570;9.984;2024-02-23T13:12:12;2.25;;;1.08;;
65189;SDS011;51777;53.570;9.984;2024-02-23T13:14:37;3.58;;;1.10;;
65189;SDS011;51777;53.570;9.984;2024-02-23T13:17:03;3.67;;;1.10;;
65189;SDS011;51777;53.570;9.984;2024-02-23T13:19:28;4.07;;;0.95;;
65189;SDS011;51777;53.570;9.984;2024-02-23T13:21:54;5.40;;;1.48;;
65189;SDS011;51777;53.570;9.984;2024-02-23T13:24:19;4.93;;;1.38;;
65189;SDS011;51777;53.570;9.984;2024-02-23T13:26:45;1.85;;;0.90;;
65189;SDS011;51777;53.570;9.984;2024-02-23T13:29:11;3.33;;;1.40;;
65189;SDS011;51777;53.570;9.984;2024-02-23T13:31:36;4.45;;;1.40;;
65189;SDS011;51777;53.570;9.984;2024-02-23T13:34:03;6.93;;;1.75;;
65189;SDS011;51777;53.570;9.984;2024-02-23T13:36:30;6.00;;;1.50;;
65189;SDS011;51777;53.570;9.984;2024-02-23T13:38:55;4.45;;;0.90;;
65189;SDS011;51777;53.570;9.984;2024-02-23T13:41:31;5.43;;;1.00;;
65189;SDS011;51777;53.570;9.984;2024-02-23T13:43:59;2.53;;;0.90;;
65189;SDS011;51777;53.570;9.984;2024-02-23T13:46:25;4.22;;;1.40;;
65189;SDS011;51777;53.570;9.984;2024-02-23T13:49:01;2.88;;;1.00;;
65189;SDS011;51777;53.570;9.984;2024-02-23T13:51:30;3.83;;;1.17;;
65189;SDS011;51777;53.570;9.984;2024-02-23T13:53:56;3.95;;;1.20;;
65189;SDS011;51777;53.570;9.984;2024-02-23T13:56:22;8.45;;;1.20;;
65189;SDS011;51777;53.570;9.984;2024-02-23T13:58:47;2.40;;;1.05;;
65189;SDS011;51777;53.570;9.984;2024-02-23T14:01:14;5.20;;;1.17;;
65189;SDS011;51777;53.570;9.984;2024-02-23T14:03:40;2.20;;;0.95;;
65189;SDS011;51777;53.570;9.984;2024-02-23T14:06:06;3.92;;;0.88;;
65189;SDS011;51777;53.570;9.984;2024-02-23T14:08:32;5.50;;;1.40;;
65189;SDS011;51777;53.570;9.984;2024-02-23T14:10:59;3.10;;;1.35;;
65189;SDS011;51777;53.570;9.984;2024-02-23T14:13:25;2.85;;;1.15;;
65189;SDS011;51777;53.570;9.984;2024-02-23T14:15:51;3.03;;;1.20;;
65189;SDS011;51777;53.570;9.984;2024-02-23T14:18:17;3.88;;;1.10;;
65189;SDS011;51777;53.570;9.984;2024-02-23T14:20:42;2.22;;;1.00;;
65189;SDS011;51777;53.570;9.984;2024-02-23T14:23:08;2.13;;;0.77;;
65189;SDS011;51777;53.570;9.984;2024-02-23T14:25:33;5.40;;;0.98;;
65189;SDS011;51777;53.570;9.984;2024-02-23T14:27:58;5.30;;;1.50;;
65189;SDS011;51777;53.570;9.984;2024-02-23T14:30:24;2.78;;;1.10;;
65189;SDS011;51777;53.570;9.984;2024-02-23T14:32:49;2.70;;;0.90;;
65189;SDS011;51777;53.570;9.984;2024-02-23T14:35:15;5.35;;;1.05;;
65189;SDS011;51777;53.570;9.984;2024-02-23T14:37:40;4.90;;;2.20;;
65189;SDS011;51777;53.570;9.984;2024-02-23T14:40:06;4.13;;;1.70;;
65189;SDS011;51777;53.570;9.984;2024-02-23T14:42:32;3.33;;;1.02;;
65189;SDS011;51777;53.570;9.984;2024-02-23T14:44:58;4.00;;;1.48;;